Time;durP1;ratioP1;P1;durP2;ratioP2;P2;SDS_P1;SDS_P2;PMS_P1;PMS_P2;Temp;Humidity;BMP_temperature;BMP_pressure;BME280_temperature;BME280_humidity;BME280_pressure;Samples;Min_cycle;Max_cycle;Signal;HPM_P1;HPM_P2
2024/01/17 00:03:06;;;;;;;21.40;11.38;;;;;;;-1.71;100.00;99768.48;4906712;58;1141004;-78
2024/01/17 00:08:12;;;;;;;24.90;10.53;;;;;;;-1.67;100.00;99762.23;4955504;58;1140935;-78
2024/01/17 00:13:17;;;;;;;24.43;12.13;;;;;;;-1.72;100.00;99759.45;4956908;58;1141169;-78
2024/01/17 00:18:23;;;;;;;27.90;11.30;;;;;;;-1.77;100.00;99753.16;5036685;58;1140896;-78
2024/01/17 00:23:28;;;;;;;32.30;13.38;;;;;;;-1.83;100.00;99747.75;5054065;57;1140987;-78
2024/01/17 00:28:34;;;;;;;32.37;13.30;;;;;;;-1.84;100.00;99747.83;5113872;57;1141183;-78
2024/01/17 00:33:40;;;;;;;34.17;15.77;;;;;;;-1.86;100.00;99756.96;5038315;57;1140671;-78
2024/01/17 00:38:45;;;;;;;37.13;14.67;;;;;;;-1.85;100.00;99743.10;5037812;57;1141015;-78
2024/01/17 00:43:51;;;;;;;23.70;10.93;;;;;;;-1.82;100.00;99744.70;4998096;57;1140592;-78
2024/01/17 00:48:57;;;;;;;35.00;13.07;;;;;;;-1.84;100.00;99747.38;4925635;58;1140607;-78
2024/01/17 00:54:03;;;;;;;30.77;12.83;;;;;;;-1.86;100.00;99747.05;4899612;58;1140874;-79
2024/01/17 00:59:11;;;;;;;29.17;12.93;;;;;;;-1.88;100.00;99747.11;4848983;59;1140787;-78
2024/01/17 01:04:16;;;;;;;26.47;10.77;;;;;;;-1.88;100.00;99750.14;4863716;58;1140891;-78
2024/01/17 01:09:22;;;;;;;28.32;12.10;;;;;;;-1.89;100.00;99759.66;4929170;58;1140925;-78
2024/01/17 01:14:27;;;;;;;32.03;12.75;;;;;;;-1.88;100.00;99746.26;4912544;57;1140991;-78
2024/01/17 01:19:33;;;;;;;31.97;13.20;;;;;;;-1.85;100.00;99743.55;4925227;58;1140936;-78
2024/01/17 01:24:38;;;;;;;28.17;12.80;;;;;;;-1.84;100.00;99738.31;4880961;58;1141047;-78
2024/01/17 01:29:44;;;;;;;35.23;13.53;;;;;;;-1.81;100.00;99731.69;4757839;58;1140683;-78
2024/01/17 01:34:50;;;;;;;75.47;29.23;;;;;;;-1.79;100.00;99730.33;4792665;59;1140776;-78
2024/01/17 01:39:55;;;;;;;38.03;17.60;;;;;;;-1.80;100.00;99720.42;4764078;59;1140608;-78
2024/01/17 01:45:01;;;;;;;38.95;18.90;;;;;;;-1.79;100.00;99719.52;4848491;59;1141814;-78
2024/01/17 01:50:08;;;;;;;29.10;14.30;;;;;;;-1.77;100.00;99707.80;5002223;57;1140702;-78
2024/01/17 01:55:14;;;;;;;31.43;14.00;;;;;;;-1.75;100.00;99707.73;4967448;57;1140712;-77
2024/01/17 02:00:20;;;;;;;33.30;15.10;;;;;;;-1.75;100.00;99698.66;5001326;57;1140932;-78
2024/01/17 02:05:26;;;;;;;33.42;15.05;;;;;;;-1.74;100.00;99698.61;4964074;57;1140899;-78
2024/01/17 02:10:31;;;;;;;31.73;12.37;;;;;;;-1.70;100.00;99684.62;4887607;57;1140726;-78
2024/01/17 02:15:37;;;;;;;30.57;14.87;;;;;;;-1.72;100.00;99688.17;4884726;58;1140595;-78
2024/01/17 02:20:43;;;;;;;35.10;15.13;;;;;;;-1.80;100.00;99688.02;4844600;58;1210944;-78
2024/01/17 02:25:49;;;;;;;30.20;14.03;;;;;;;-1.87;100.00;99693.53;4822896;59;1167914;-78
2024/01/17 02:30:56;;;;;;;39.53;14.93;;;;;;;-1.94;100.00;99698.09;4905206;58;1140811;-78
2024/01/17 02:36:01;;;;;;;28.17;13.73;;;;;;;-1.94;100.00;99688.19;4865730;58;1141335;-78
2024/01/17 02:41:09;;;;;;;31.87;13.57;;;;;;;-1.98;100.00;99685.31;4854344;58;1140994;-78
2024/01/17 02:46:14;;;;;;;31.87;13.50;;;;;;;-2.01;100.00;99698.42;4975189;56;1140828;-77
2024/01/17 02:51:20;;;;;;;22.45;10.65;;;;;;;-2.13;100.00;99691.50;4970739;56;1140863;-78
2024/01/17 02:56:26;;;;;;;32.93;13.17;;;;;;;-2.28;100.00;99707.62;4991573;57;1140964;-78
2024/01/17 03:01:33;;;;;;;34.73;14.00;;;;;;;-2.38;100.00;99703.71;4947720;57;1141091;-78
2024/01/17 03:06:38;;;;;;;32.23;13.47;;;;;;;-2.45;100.00;99702.27;4887083;58;1141213;-78
2024/01/17 03:11:44;;;;;;;33.53;12.93;;;;;;;-2.48;100.00;99697.20;4859897;59;1140835;-78
2024/01/17 03:16:49;;;;;;;32.90;14.40;;;;;;;-2.47;100.00;99694.16;4841624;59;1140915;-78
2024/01/17 03:21:55;;;;;;;48.43;17.83;;;;;;;-2.44;100.00;99698.75;4898262;58;1141443;-78
2024/01/17 03:27:02;;;;;;;39.63;16.33;;;;;;;-2.39;100.00;99688.23;4930164;58;1141086;-78
2024/01/17 03:32:08;;;;;;;35.60;16.07;;;;;;;-2.37;100.00;99674.78;4974884;58;1141053;-78
2024/01/17 03:37:13;;;;;;;36.83;14.13;;;;;;;-2.36;100.00;99671.29;4918658;58;1140744;-77
2024/01/17 03:42:19;;;;;;;28.27;12.60;;;;;;;-2.40;100.00;99667.97;4912746;58;1141033;-78
2024/01/17 03:47:24;;;;;;;33.03;13.23;;;;;;;-2.44;100.00;99666.88;4932921;56;1140748;-78
2024/01/17 03:52:30;;;;;;;36.23;12.97;;;;;;;-2.46;100.00;99655.28;4993302;56;1140885;-78
2024/01/17 03:57:36;;;;;;;27.13;12.10;;;;;;;-2.42;100.00;99645.63;4944570;58;1140694;-77
2024/01/17 04:02:41;;;;;;;29.80;13.10;;;;;;;-2.46;100.00;99634.56;4866266;57;1140971;-78
2024/01/17 04:07:47;;;;;;;33.63;13.47;;;;;;;-2.52;100.00;99633.50;4916709;58;1140495;-78
2024/01/17 04:12:53;;;;;;;28.17;12.80;;;;;;;-2.59;100.00;99624.27;4864034;59;1141245;-77
2024/01/17 04:17:58;;;;;;;34.27;13.13;;;;;;;-2.69;100.00;99614.72;4896828;58;1140869;-77
2024/01/17 04:23:06;;;;;;;30.60;12.97;;;;;;;-2.75;100.00;99618.02;4913500;58;1140994;-77
2024/01/17 04:28:12;;;;;;;31.50;13.93;;;;;;;-2.75;100.00;99614.95;4942502;58;1140770;-77
2024/01/17 04:33:17;;;;;;;37.87;14.80;;;;;;;-2.82;100.00;99612.21;4940009;57;1140989;-77
2024/01/17 04:38:23;;;;;;;36.60;14.97;;;;;;;-2.86;100.00;99608.05;4930255;58;1140813;-78
2024/01/17 04:43:28;;;;;;;37.97;14.17;;;;;;;-2.92;100.00;99608.30;4903929;58;1141091;-77
2024/01/17 04:48:34;;;;;;;35.40;14.75;;;;;;;-3.00;100.00;99611.15;4964067;56;1140777;-77
2024/01/17 04:53:42;;;;;;;31.67;14.87;;;;;;;-2.97;100.00;99603.28;4981411;56;1140795;-77
2024/01/17 04:58:48;;;;;;;56.20;24.50;;;;;;;-3.00;100.00;99598.22;4933796;56;1140501;-77
2024/01/17 05:03:54;;;;;;;48.67;17.17;;;;;;;-3.10;100.00;99597.33;4854062;59;1140576;-77
2024/01/17 05:09:00;;;;;;;36.50;16.10;;;;;;;-3.19;100.00;99591.58;4849813;58;1141729;-77
2024/01/17 05:14:05;;;;;;;33.70;15.40;;;;;;;-3.23;100.00;99578.39;4889233;58;1140856;-78
2024/01/17 05:19:11;;;;;;;45.83;15.48;;;;;;;-3.30;100.00;99574.33;4924100;58;1140824;-77
2024/01/17 05:24:16;;;;;;;79.80;27.82;;;;;;;-3.39;100.00;99566.92;4907709;58;1141799;-78
2024/01/17 05:29:22;;;;;;;130.97;45.20;;;;;;;-3.47;100.00;99559.87;4945451;58;1140686;-78
2024/01/17 05:34:27;;;;;;;108.67;32.83;;;;;;;-3.47;100.00;99567.63;4919647;58;1143102;-78
2024/01/17 05:39:33;;;;;;;136.70;48.53;;;;;;;-3.47;100.00;99565.04;4932405;57;1142927;-77
2024/01/17 05:44:38;;;;;;;336.77;97.87;;;;;;;-3.48;100.00;99559.92;4882913;58;1142840;-77
2024/01/17 05:49:44;;;;;;;127.47;38.67;;;;;;;-3.67;100.00;99559.31;4996245;56;1143001;-77
2024/01/17 05:54:50;;;;;;;88.45;28.73;;;;;;;-3.77;100.00;99555.78;4910772;56;1143341;-78
2024/01/17 05:59:55;;;;;;;88.90;32.63;;;;;;;-3.76;100.00;99569.09;4887450;59;1140814;-78
2024/01/17 06:05:01;;;;;;;70.80;27.67;;;;;;;-3.75;100.00;99562.59;4928531;57;1140930;-78
2024/01/17 06:10:08;;;;;;;108.03;32.35;;;;;;;-3.84;100.00;99562.08;4954746;57;1140873;-77
2024/01/17 06:15:17;;;;;;;112.63;41.17;;;;;;;-3.96;100.00;99561.58;4868372;57;1164823;-80
2024/01/17 06:20:21;;;;;;;302.97;97.97;;;;;;;-4.05;100.00;99559.77;4955259;57;1143294;-76
2024/01/17 06:25:27;;;;;;;176.57;56.48;;;;;;;-4.10;100.00;99552.16;4959378;57;1142885;-77
2024/01/17 06:30:33;;;;;;;98.63;36.27;;;;;;;-4.09;100.00;99551.72;4950113;57;1142861;-77
2024/01/17 06:35:38;;;;;;;56.30;23.30;;;;;;;-4.13;100.00;99544.99;5061236;57;1140973;-76
2024/01/17 06:40:44;;;;;;;70.83;28.73;;;;;;;-4.20;100.00;99546.92;5011678;57;1140807;-71
2024/01/17 06:45:49;;;;;;;48.83;20.23;;;;;;;-4.15;100.00;99547.62;4942693;57;1140804;-72
2024/01/17 06:50:55;;;;;;;68.93;24.33;;;;;;;-4.11;100.00;99528.97;4844711;58;1140528;-69
2024/01/17 06:56:00;;;;;;;54.07;21.03;;;;;;;-4.15;100.00;99526.97;4878453;57;1140563;-70
2024/01/17 07:01:07;;;;;;;42.45;17.62;;;;;;;-4.29;100.00;99519.69;4948998;58;1140493;-72
2024/01/17 07:06:12;;;;;;;64.93;23.07;;;;;;;-4.38;100.00;99501.91;4910724;57;1140924;-70
2024/01/17 07:11:18;;;;;;;94.23;41.77;;;;;;;-4.39;100.00;99500.22;4907394;58;1140819;-72
2024/01/17 07:16:24;;;;;;;42.20;19.97;;;;;;;-4.36;100.00;99493.67;4929600;56;1140813;-70
2024/01/17 07:21:30;;;;;;;46.53;20.37;;;;;;;-4.41;100.00;99469.75;4883105;57;1140626;-68
2024/01/17 07:26:36;;;;;;;55.73;21.30;;;;;;;-4.35;100.00;99467.42;5014148;56;1140525;-70
2024/01/17 07:31:42;;;;;;;130.70;41.00;;;;;;;-4.34;100.00;99463.50;5023258;56;1140796;-70
2024/01/17 07:36:48;;;;;;;64.63;23.93;;;;;;;-4.30;100.00;99455.21;5002704;56;1142941;-69
2024/01/17 07:41:55;;;;;;;59.17;19.90;;;;;;;-4.23;100.00;99446.79;4915968;57;1140564;-71
2024/01/17 07:47:01;;;;;;;44.87;19.03;;;;;;;-4.10;100.00;99439.85;4971876;56;1140886;-71
2024/01/17 07:52:07;;;;;;;49.67;19.80;;;;;;;-4.00;100.00;99439.94;5039229;56;1140422;-72
2024/01/17 07:57:13;;;;;;;38.20;18.30;;;;;;;-3.92;100.00;99428.02;4964462;57;1140941;-76
2024/01/17 08:02:18;;;;;;;51.10;23.10;;;;;;;-3.83;100.00;99418.67;4888538;57;1141002;-74
2024/01/17 08:07:25;;;;;;;43.80;19.20;;;;;;;-3.69;100.00;99410.41;4989404;56;1140624;-74
2024/01/17 08:12:30;;;;;;;44.38;20.62;;;;;;;-3.50;100.00;99406.20;5017076;56;1235713;-76
2024/01/17 08:17:36;;;;;;;48.15;21.02;;;;;;;-3.31;100.00;99396.00;4979069;56;1140862;-74
2024/01/17 08:22:43;;;;;;;56.37;21.53;;;;;;;-3.20;100.00;99384.33;4955766;56;1141850;-77
2024/01/17 08:27:48;;;;;;;41.45;19.05;;;;;;;-3.18;100.00;99364.88;4987817;56;1141131;-74
2024/01/17 08:32:54;;;;;;;41.35;17.48;;;;;;;-3.17;100.00;99369.14;4915738;57;1140736;-76
2024/01/17 08:38:00;;;;;;;60.65;25.72;;;;;;;-3.13;100.00;99357.78;4938075;57;1141076;-75
2024/01/17 08:43:06;;;;;;;42.17;18.45;;;;;;;-3.07;100.00;99348.95;4886223;57;1140974;-75
2024/01/17 08:48:11;;;;;;;54.30;23.30;;;;;;;-3.02;100.00;99341.37;4996072;56;1140930;-75
2024/01/17 08:53:17;;;;;;;51.20;22.23;;;;;;;-3.02;100.00;99322.42;5030572;56;1140708;-76
2024/01/17 08:58:22;;;;;;;65.43;31.10;;;;;;;-3.07;100.00;99308.86;4967568;57;1140701;-76
2024/01/17 09:03:29;;;;;;;83.75;38.33;;;;;;;-3.08;100.00;99299.42;4969585;58;1140555;-75
2024/01/17 09:08:34;;;;;;;74.27;31.33;;;;;;;-3.00;100.00;99299.47;4921464;56;1140927;-74
2024/01/17 09:13:41;;;;;;;74.70;29.60;;;;;;;-3.01;100.00;99298.24;4802950;58;1140933;-75
2024/01/17 09:18:47;;;;;;;62.90;26.57;;;;;;;-3.04;100.00;99288.86;4938219;57;1140988;-76
2024/01/17 09:23:52;;;;;;;54.30;23.50;;;;;;;-3.08;100.00;99272.27;4978605;57;1141446;-75
2024/01/17 09:28:58;;;;;;;52.77;21.30;;;;;;;-3.09;100.00;99262.83;4953576;56;1140965;-75
2024/01/17 09:34:04;;;;;;;40.50;18.57;;;;;;;-3.09;100.00;99258.49;4932575;57;1140887;-75
2024/01/17 09:39:10;;;;;;;52.53;23.37;;;;;;;-3.08;100.00;99249.83;4887118;56;1140746;-75
2024/01/17 09:44:16;;;;;;;46.33;20.57;;;;;;;-3.02;100.00;99230.16;4925822;57;1141075;-77
2024/01/17 09:49:22;;;;;;;49.10;20.93;;;;;;;-3.00;100.00;99218.00;5023799;56;1140723;-76
2024/01/17 09:54:29;;;;;;;52.50;19.00;;;;;;;-2.99;100.00;99213.67;4945855;56;1140558;-76
2024/01/17 09:59:39;;;;;;;66.27;30.90;;;;;;;-3.01;100.00;99199.51;4991395;56;1140848;-75
2024/01/17 10:04:44;;;;;;;45.63;19.93;;;;;;;-2.95;100.00;99185.03;4838421;58;1140708;-75
2024/01/17 10:09:50;;;;;;;104.77;48.53;;;;;;;-2.80;100.00;99166.69;4931195;57;1140815;-76
2024/01/17 10:14:56;;;;;;;66.63;26.47;;;;;;;-2.71;100.00;99159.80;4964854;57;1143145;-76
2024/01/17 10:20:02;;;;;;;101.70;47.47;;;;;;;-2.60;100.00;99158.88;4991602;56;1140755;-77
2024/01/17 10:25:11;;;;;;;76.15;28.75;;;;;;;-2.47;100.00;99146.20;4970190;56;1143176;-76
2024/01/17 10:30:17;;;;;;;52.87;25.27;;;;;;;-2.42;100.00;99142.08;4929871;57;1140953;-75
2024/01/17 10:35:25;;;;;;;48.50;21.52;;;;;;;-2.38;100.00;99130.68;4899601;56;1140989;-72
2024/01/17 10:40:30;;;;;;;80.53;33.88;;;;;;;-2.30;100.00;99121.66;4906708;58;1140788;-72
2024/01/17 10:45:39;;;;;;;78.90;34.80;;;;;;;-2.16;100.00;99105.00;4935431;56;1140802;-78
2024/01/17 10:50:46;;;;;;;118.10;46.53;;;;;;;-2.10;100.00;99098.66;4938396;57;1141087;-76
2024/01/17 10:55:54;;;;;;;75.40;36.57;;;;;;;-2.02;100.00;99086.64;4936412;57;1143007;-79
2024/01/17 11:01:04;;;;;;;57.37;24.63;;;;;;;-1.97;100.00;99075.12;5013526;57;1141791;-77
2024/01/17 11:06:10;;;;;;;43.90;20.17;;;;;;;-1.88;100.00;99051.36;4843774;58;1140903;-78
2024/01/17 11:11:18;;;;;;;42.67;21.63;;;;;;;-1.81;100.00;99035.88;4901966;57;1140977;-78
2024/01/17 11:16:24;;;;;;;63.30;28.70;;;;;;;-1.69;100.00;99019.33;4920628;57;1141005;-77
2024/01/17 11:21:32;;;;;;;64.73;26.70;;;;;;;-1.63;100.00;99012.06;5013411;56;1140722;-77
2024/01/17 11:26:45;;;;;;;48.90;22.20;;;;;;;-1.60;100.00;99000.24;4864708;57;1140822;-77
2024/01/17 11:32:30;;;;;;;45.40;19.80;;;;;;;-1.62;100.00;98987.81;4830557;58;1140881;-78
2024/01/17 11:37:39;;;;;;;54.27;22.40;;;;;;;-1.56;100.00;98982.78;4830150;59;1140914;-76
2024/01/17 11:42:43;;;;;;;55.50;24.70;;;;;;;-1.42;100.00;98969.92;4885973;58;1140651;-78
2024/01/17 11:47:58;;;;;;;42.00;20.07;;;;;;;-1.26;100.00;98963.45;4915224;57;1140579;-76
2024/01/17 11:53:05;;;;;;;54.27;21.37;;;;;;;-1.22;100.00;98939.83;4975373;56;1140990;-75
2024/01/17 11:58:11;;;;;;;55.60;23.43;;;;;;;-1.17;100.00;98923.56;4995020;56;1141102;-76
2024/01/17 12:03:31;;;;;;;55.60;23.47;;;;;;;-0.95;100.00;98904.22;4969491;56;1140563;-77
2024/01/17 12:08:38;;;;;;;90.32;37.45;;;;;;;-0.75;100.00;98896.11;4931390;56;1140734;-78
2024/01/17 12:13:44;;;;;;;76.72;34.25;;;;;;;-0.52;100.00;98875.33;5012896;56;1140694;-78
2024/01/17 12:19:01;;;;;;;51.58;24.55;;;;;;;-0.23;100.00;98875.73;5028653;56;1140876;-77
2024/01/17 12:24:11;;;;;;;54.33;23.37;;;;;;;0.05;100.00;98860.60;4933202;56;1140766;-77
2024/01/17 12:29:17;;;;;;;50.67;21.57;;;;;;;0.23;100.00;98837.38;4886296;56;1138598;-79
2024/01/17 12:34:23;;;;;;;63.70;28.40;;;;;;;0.32;100.00;98826.86;4910690;56;1138940;-79
2024/01/17 12:39:29;;;;;;;56.30;22.65;;;;;;;0.44;100.00;98819.61;4953523;58;1138794;-78
2024/01/17 12:44:35;;;;;;;60.13;23.60;;;;;;;0.59;100.00;98808.69;4934268;57;1138738;-75
2024/01/17 12:49:41;;;;;;;50.63;22.30;;;;;;;0.50;100.00;98794.95;4896468;57;1138891;-78
2024/01/17 12:54:46;;;;;;;62.20;28.43;;;;;;;0.58;100.00;98797.91;4938880;56;1138937;-76
2024/01/17 12:59:52;;;;;;;57.17;26.73;;;;;;;0.72;100.00;98779.64;4945726;57;1138963;-77
2024/01/17 13:05:10;;;;;;;64.58;25.25;;;;;;;0.77;100.00;98767.14;5006496;56;1138547;-75
2024/01/17 13:10:22;;;;;;;54.20;22.60;;;;;;;0.78;100.00;98758.87;5030878;56;1138935;-78
2024/01/17 13:15:28;;;;;;;59.53;23.87;;;;;;;0.62;100.00;98752.08;4879498;58;1141267;-77
2024/01/17 13:20:33;;;;;;;61.20;26.93;;;;;;;0.24;100.00;98739.42;4926316;58;1249170;-78
2024/01/17 13:25:39;;;;;;;55.05;24.47;;;;;;;-0.07;100.00;98736.63;4944254;57;1138802;-78
2024/01/17 13:30:45;;;;;;;55.63;23.42;;;;;;;-0.27;100.00;98730.53;4918086;57;1141144;-79
2024/01/17 13:35:54;;;;;;;54.80;22.20;;;;;;;-0.42;100.00;98721.46;4917300;57;1140996;-78
2024/01/17 13:41:00;;;;;;;58.03;25.83;;;;;;;-0.63;100.00;98704.63;4956561;58;1140888;-76
2024/01/17 13:46:06;;;;;;;60.97;26.70;;;;;;;-0.72;100.00;98693.48;4998023;56;1140601;-79
2024/01/17 13:51:13;;;;;;;62.43;25.27;;;;;;;-0.75;100.00;98699.69;5005506;56;1140962;-80
2024/01/17 13:56:18;;;;;;;58.05;25.23;;;;;;;-0.82;100.00;98703.59;4977744;57;1140811;-78
2024/01/17 14:01:24;;;;;;;57.70;24.47;;;;;;;-0.89;100.00;98700.15;4990072;55;1140882;-77
2024/01/17 14:06:30;;;;;;;66.60;27.23;;;;;;;-0.97;100.00;98682.92;4867315;57;1141042;-77
2024/01/17 14:11:40;;;;;;;75.23;30.53;;;;;;;-1.00;100.00;98676.61;4748480;59;1140846;-78
2024/01/17 14:16:43;;;;;;;71.20;28.00;;;;;;;-1.08;100.00;98666.71;4859895;57;1140819;-88
2024/01/17 14:21:48;;;;;;;74.60;29.27;;;;;;;-1.13;100.00;98657.06;4873862;57;1140820;-78
2024/01/17 14:26:54;;;;;;;73.40;26.90;;;;;;;-1.19;100.00;98650.93;5016297;56;1140554;-80
2024/01/17 14:32:00;;;;;;;85.97;33.90;;;;;;;-1.25;100.00;98638.34;5032980;56;1140806;-72
2024/01/17 14:37:06;;;;;;;83.77;32.10;;;;;;;-1.32;100.00;98627.48;4958393;56;1140701;-69
2024/01/17 14:42:12;;;;;;;91.20;36.60;;;;;;;-1.40;100.00;98609.44;4996733;56;1141458;-76
2024/01/17 14:47:17;;;;;;;77.82;31.00;;;;;;;-1.47;100.00;98605.06;4922204;57;1140916;-76
2024/01/17 14:52:23;;;;;;;83.47;35.00;;;;;;;-1.53;100.00;98604.95;4899666;57;1140813;-76
2024/01/17 14:57:29;;;;;;;72.75;32.63;;;;;;;-1.56;100.00;98593.50;4894721;57;1140806;-76
2024/01/17 15:02:34;;;;;;;100.80;43.00;;;;;;;-1.58;100.00;98581.55;4943208;57;1140604;-75
2024/01/17 15:07:41;;;;;;;78.13;32.07;;;;;;;-1.64;100.00;98573.66;4915870;58;1142886;-76
2024/01/17 15:12:46;;;;;;;243.63;102.47;;;;;;;-1.67;100.00;98557.45;4850288;57;1140815;-76
2024/01/17 15:17:52;;;;;;;124.87;62.27;;;;;;;-1.68;100.00;98547.55;4864785;57;1145673;-76
2024/01/17 15:22:57;;;;;;;88.77;41.97;;;;;;;-1.67;100.00;98541.44;4863515;58;1142990;-76
2024/01/17 15:28:04;;;;;;;99.03;36.65;;;;;;;-1.67;100.00;98538.84;4893193;58;1140816;-76
2024/01/17 15:33:09;;;;;;;201.53;86.83;;;;;;;-1.70;100.00;98526.09;4941656;57;1140642;-76
2024/01/17 15:38:15;;;;;;;90.10;35.43;;;;;;;-1.71;100.00;98521.84;4894214;57;1142998;-76
2024/01/17 15:43:21;;;;;;;75.73;30.17;;;;;;;-1.75;100.00;98504.80;4931051;57;1140936;-76
2024/01/17 15:48:27;;;;;;;74.63;28.57;;;;;;;-1.81;100.00;98498.21;4895506;58;1140953;-76
2024/01/17 15:53:33;;;;;;;92.47;31.67;;;;;;;-1.86;100.00;98489.91;4927787;57;1141167;-76
2024/01/17 15:58:43;;;;;;;105.47;40.60;;;;;;;-1.91;100.00;98469.91;4886168;57;1140843;-76
2024/01/17 16:03:49;;;;;;;91.60;33.40;;;;;;;-1.91;100.00;98469.91;4952351;57;1142980;-76
2024/01/17 16:08:54;;;;;;;94.13;34.07;;;;;;;-1.91;100.00;98463.43;4917545;57;1140968;-76
2024/01/17 16:14:00;;;;;;;91.17;32.73;;;;;;;-1.94;100.00;98453.70;4881336;57;1141187;-76
2024/01/17 16:19:06;;;;;;;103.32;33.65;;;;;;;-1.99;100.00;98444.94;4864123;58;1141073;-76
2024/01/17 16:24:12;;;;;;;106.20;34.83;;;;;;;-2.07;100.00;98432.05;4876947;58;1142958;-74
2024/01/17 16:29:17;;;;;;;119.27;45.27;;;;;;;-2.10;100.00;98429.18;4887910;57;1142690;-75
2024/01/17 16:34:23;;;;;;;173.83;56.57;;;;;;;-2.10;100.00;98424.46;4917619;57;1143859;-75
2024/01/17 16:39:28;;;;;;;164.57;58.02;;;;;;;-2.09;100.00;98409.30;4925279;57;1143288;-76
2024/01/17 16:44:34;;;;;;;123.40;43.07;;;;;;;-2.07;100.00;98400.52;4930586;57;1142922;-75
2024/01/17 16:49:40;;;;;;;106.27;39.40;;;;;;;-2.09;100.00;98376.92;4808247;58;1143230;-76
2024/01/17 16:54:45;;;;;;;139.43;42.17;;;;;;;-2.10;100.00;98373.97;4767072;59;1142816;-74
2024/01/17 16:59:51;;;;;;;109.70;36.03;;;;;;;-2.13;100.00;98360.73;4906344;57;1142923;-75
2024/01/17 17:04:57;;;;;;;104.03;35.33;;;;;;;-2.16;100.00;98362.23;4896618;57;1143017;-76
2024/01/17 17:10:04;;;;;;;90.53;32.63;;;;;;;-2.20;100.00;98346.52;4836555;57;1143184;-75
2024/01/17 17:15:10;;;;;;;145.20;51.20;;;;;;;-2.13;100.00;98340.02;4869921;58;1140933;-75
2024/01/17 17:20:16;;;;;;;405.70;124.07;;;;;;;-2.07;100.00;98329.30;4853319;58;1142720;-75
2024/01/17 17:25:22;;;;;;;355.00;98.20;;;;;;;-2.05;100.00;98313.20;4900234;57;1144888;-75
2024/01/17 17:30:28;;;;;;;115.03;40.67;;;;;;;-2.00;100.00;98306.45;4890698;57;1142861;-75
2024/01/17 17:35:33;;;;;;;95.63;33.97;;;;;;;-1.97;100.00;98296.72;4934637;57;1142972;-76
2024/01/17 17:40:39;;;;;;;87.40;33.43;;;;;;;-1.93;100.00;98282.66;4896108;57;1141181;-76
2024/01/17 17:45:45;;;;;;;86.15;33.73;;;;;;;-1.91;100.00;98276.92;4942308;56;1141105;-76
2024/01/17 17:50:51;;;;;;;77.20;30.27;;;;;;;-1.85;100.00;98268.77;4951197;56;1140762;-76
2024/01/17 17:55:57;;;;;;;130.63;53.58;;;;;;;-1.82;100.00;98262.54;4950852;57;1140658;-76
2024/01/17 18:01:03;;;;;;;69.47;28.70;;;;;;;-1.78;100.00;98258.38;4947134;56;1143102;-77
2024/01/17 18:06:09;;;;;;;92.13;36.53;;;;;;;-1.74;100.00;98247.36;4946571;56;1140775;-77
2024/01/17 18:11:15;;;;;;;81.00;33.07;;;;;;;-1.68;100.00;98239.17;4939294;57;1140855;-77
2024/01/17 18:16:23;;;;;;;58.87;24.73;;;;;;;-1.61;100.00;98219.72;4952181;56;1140783;-77
2024/01/17 18:21:28;;;;;;;85.80;30.90;;;;;;;-1.57;100.00;98208.23;4964164;56;1140897;-76
2024/01/17 18:26:34;;;;;;;109.37;36.63;;;;;;;-1.54;100.00;98207.20;4975033;56;1141042;-77
2024/01/17 18:31:40;;;;;;;169.43;59.33;;;;;;;-1.53;100.00;98192.02;4944911;56;1142840;-75
2024/01/17 18:36:45;;;;;;;189.30;65.97;;;;;;;-1.49;100.00;98178.73;4912583;57;1142792;-75
2024/01/17 18:41:53;;;;;;;113.97;41.35;;;;;;;-1.47;100.00;98170.39;4926030;57;1142855;-75
2024/01/17 18:47:00;;;;;;;77.17;31.10;;;;;;;-1.44;100.00;98170.66;4843486;57;1143110;-73
2024/01/17 18:52:07;;;;;;;55.90;22.47;;;;;;;-1.40;100.00;98159.62;4869581;57;1140874;-76
2024/01/17 18:57:12;;;;;;;69.03;29.37;;;;;;;-1.42;100.00;98156.67;4799581;59;1140931;-75
2024/01/17 19:02:18;;;;;;;62.73;27.27;;;;;;;-1.38;100.00;98151.29;4717100;59;1140881;-76
2024/01/17 19:07:24;;;;;;;72.13;29.60;;;;;;;-1.40;100.00;98142.31;4736059;59;1140818;-76
2024/01/17 19:12:29;;;;;;;68.80;29.37;;;;;;;-1.39;100.00;98141.85;4908140;57;1140674;-77
2024/01/17 19:17:35;;;;;;;79.17;29.20;;;;;;;-1.38;100.00;98125.37;4944596;57;1140652;-76
2024/01/17 19:22:40;;;;;;;74.97;28.80;;;;;;;-1.34;100.00;98125.50;4797810;58;1140862;-74
2024/01/17 19:27:47;;;;;;;70.53;28.97;;;;;;;-1.33;100.00;98115.03;4768976;59;1140891;-76
2024/01/17 19:32:53;;;;;;;64.17;29.15;;;;;;;-1.32;100.00;98109.38;4892192;58;1140838;-77
2024/01/17 19:38:00;;;;;;;155.57;73.80;;;;;;;-1.35;100.00;98108.28;4852134;57;1141084;-77
2024/01/17 19:43:06;;;;;;;58.40;27.27;;;;;;;-1.34;100.00;98095.22;4807762;58;1143076;-74
2024/01/17 19:48:12;;;;;;;61.13;24.63;;;;;;;-1.32;100.00;98073.91;4865784;57;1140971;-76
2024/01/17 19:53:20;;;;;;;95.83;34.00;;;;;;;-1.29;100.00;98071.11;4751637;58;1141135;-77
2024/01/17 19:58:25;;;;;;;61.23;25.80;;;;;;;-1.25;100.00;98072.56;4821244;57;1140922;-76
2024/01/17 20:03:30;;;;;;;99.87;34.97;;;;;;;-1.21;100.00;98058.44;4849790;57;1141028;-74
2024/01/17 20:08:36;;;;;;;65.90;27.20;;;;;;;-1.17;100.00;98064.25;4928762;57;1140799;-74
2024/01/17 20:13:45;;;;;;;69.00;30.43;;;;;;;-1.16;100.00;98043.86;4850539;58;1140742;-75
2024/01/17 20:18:54;;;;;;;69.10;27.10;;;;;;;-1.15;100.00;98026.91;4756413;59;1140759;-75
2024/01/17 20:23:57;;;;;;;73.23;29.60;;;;;;;-1.15;100.00;98033.38;4799888;58;1141091;-77
2024/01/17 20:29:03;;;;;;;61.17;25.47;;;;;;;-1.15;100.00;98033.38;4795471;58;1140988;-77
2024/01/17 20:34:09;;;;;;;72.53;28.02;;;;;;;-1.14;100.00;98031.62;4882288;57;1140727;-74
2024/01/17 20:39:15;;;;;;;79.27;30.65;;;;;;;-1.14;100.00;98026.44;4940866;57;1140897;-76
2024/01/17 20:44:22;;;;;;;98.22;39.23;;;;;;;-1.15;100.00;98026.91;4914813;57;1141231;-76
2024/01/17 20:49:28;;;;;;;183.83;69.93;;;;;;;-1.12;100.00;98019.37;4946249;57;1140780;-76
2024/01/17 20:54:33;;;;;;;98.27;49.18;;;;;;;-1.12;100.00;98008.54;4929161;57;1143094;-76
2024/01/17 20:59:40;;;;;;;67.50;31.40;;;;;;;-1.12;100.00;97996.04;4981302;56;1140771;-76
2024/01/17 21:04:47;;;;;;;141.37;62.90;;;;;;;-1.12;100.00;97992.98;4842982;57;1140804;-74
2024/01/17 21:09:52;;;;;;;78.97;35.23;;;;;;;-1.13;100.00;97990.48;4954646;57;1142833;-76
2024/01/17 21:14:58;;;;;;;62.93;30.17;;;;;;;-1.14;100.00;97975.86;4922762;57;1141017;-74
2024/01/17 21:20:04;;;;;;;96.70;38.55;;;;;;;-1.19;100.00;97971.45;4827853;58;1140490;-76
2024/01/17 21:25:11;;;;;;;98.30;40.63;;;;;;;-1.18;100.00;97960.16;4931196;56;1140651;-76
2024/01/17 21:30:16;;;;;;;82.27;35.13;;;;;;;-1.16;100.00;97959.11;4900220;57;1140676;-76
2024/01/17 21:35:22;;;;;;;69.80;30.55;;;;;;;-1.11;100.00;97954.44;4830699;58;1141076;-74
2024/01/17 21:40:27;;;;;;;106.63;43.13;;;;;;;-1.08;100.00;97956.82;4860841;56;1140559;-79
2024/01/17 21:45:33;;;;;;;196.33;70.80;;;;;;;-1.04;100.00;97957.41;4920565;57;1143111;-77
2024/01/17 21:50:38;;;;;;;152.07;60.27;;;;;;;-1.00;100.00;97958.02;4949209;57;1142861;-76
2024/01/17 21:55:44;;;;;;;148.93;58.77;;;;;;;-0.94;100.00;97949.34;4910677;58;1142660;-76
2024/01/17 22:00:50;;;;;;;116.83;48.87;;;;;;;-0.89;100.00;97953.71;4887027;57;1143015;-76
2024/01/17 22:06:03;;;;;;;155.07;58.90;;;;;;;-0.87;100.00;97936.73;4947172;57;1143137;-79
2024/01/17 22:11:05;;;;;;;125.90;52.30;;;;;;;-0.88;100.00;97936.37;4907171;57;1142909;-77
2024/01/17 22:16:10;;;;;;;113.03;46.23;;;;;;;-0.91;100.00;97910.65;4857032;58;1142805;-77
2024/01/17 22:21:16;;;;;;;130.43;52.35;;;;;;;-0.95;100.00;97898.40;4868111;58;1142848;-78
2024/01/17 22:26:21;;;;;;;194.33;68.63;;;;;;;-0.98;100.00;97887.41;4860772;58;1143008;-78
2024/01/17 22:31:28;;;;;;;111.55;47.45;;;;;;;-1.03;100.00;97887.73;4770026;59;1143324;-76
2024/01/17 22:36:34;;;;;;;86.03;37.63;;;;;;;-1.03;100.00;97884.31;4857432;58;1143267;-76